Columbia — WYR2092 — position and weather

sailwx.info

Track history (hours):
 
Tides and Currents Weather Stations Pressure Air Temp Water Temp Dewpoint Dewpoint Depression Visibility Wind Speed Wind Dir Waves Ship Positions

Columbia

Owner: ALASKA, STATE OF, ANCHORAGE, AK. More information available from US FCC via Universal Licensing System and Coast Guard Vessel Documentation Center.

Last reported at 2019-Jul-21 11:52 UTC. Time now 2019-Jul-22 14:21 UTC.
Position N 54°54' W 131°02'.

Type: Passenger vessel. MMSI: 367144000.

Date/timePositionNaut miles runAvg speedWind from/ knotsBaromVisibWave heightAir tempDewpointWater temp
2019-Jul-21 11:52N 54°54' W 131°02'616.4
2019-Jul-21 11:30N 54°48' W 130°59'817.0
2019-Jul-21 11:00N 54°42' W 130°50'817.0
2019-Jul-21 10:30N 54°35' W 130°40'816.5
2019-Jul-21 10:01N 54°27' W 130°38'816.5
2019-Jul-21 09:30N 54°19' W 130°35'816.1
2019-Jul-21 09:01N 54°12' W 130°28'815.2
2019-Jul-21 08:30N 54°06' W 130°21'816.7
2019-Jul-21 08:00N 53°59' W 130°13'815.8
2019-Jul-21 07:30N 53°53' W 130°05'816.4
2019-Jul-21 07:00N 53°47' W 129°55'9313.2
2019-Jul-20 23:56N 52°35' W 128°15'914.1
2019-Jul-20 23:16N 52°28' W 128°24'417.5
2019-Jul-20 23:01N 52°25' W 128°29'714.4
2019-Jul-20 22:30N 52°17' W 128°28'816.0
2019-Jul-20 22:00N 52°14' W 128°16'612.8
2019-Jul-20 21:30N 52°11' W 128°07'4 7.7
2019-Jul-20 21:00N 52°07' W 128°08'714.7
2019-Jul-20 20:31N 52°04' W 127°57'816.0
2019-Jul-20 20:00N 51°56' W 127°56'917.2
2019-Jul-20 19:30N 51°47' W 127°55'917.1
2019-Jul-20 19:00N 51°39' W 127°54'917.2
2019-Jul-20 18:30N 51°30' W 127°52'917.2
2019-Jul-20 18:00N 51°22' W 127°51'816.3
2019-Jul-20 17:30N 51°14' W 127°52'917.3
2019-Jul-20 17:01N 51°06' W 127°45'917.7
2019-Jul-20 16:30N 50°60' W 127°35'7816.5
2019-Jul-20 11:46N 50°23' W 125°47'1316.1
2019-Jul-20 10:58N 50°20' W 125°27'715.9
2019-Jul-20 10:30N 50°14' W 125°23'715.2
2019-Jul-20 10:00N 50°07' W 125°18'612.0
2019-Jul-20 09:30N 50°02' W 125°13'815.4
2019-Jul-20 09:00N 49°56' W 125°06'917.3
2019-Jul-20 08:30N 49°49' W 124°56'816.7
2019-Jul-20 08:00N 49°44' W 124°47'917.1
2019-Jul-20 07:30N 49°37' W 124°38'917.4
2019-Jul-20 07:01N 49°31' W 124°28'816.9
2019-Jul-20 06:31N 49°26' W 124°18'816.9
2019-Jul-20 06:00N 49°24' W 124°06'816.9
2019-Jul-20 05:30N 49°22' W 123°53'816.5
2019-Jul-20 05:01N 49°18' W 123°42'917.0
2019-Jul-20 04:30N 49°12' W 123°33'816.9
2019-Jul-20 04:00N 49°06' W 123°24'917.1
2019-Jul-20 03:31N 48°60' W 123°14'816.9
2019-Jul-20 03:01N 48°54' W 123°05'1118.0
2019-Jul-20 02:26N 48°48' W 122°52'716.8
2019-Jul-20 02:00N 48°43' W 122°44'816.0
2019-Jul-20 01:31N 48°39' W 122°34'5 4.2
2019-Jul-20 00:15N 48°43' W 122°31'0 0.0
2019-Jul-19 22:09N 48°43' W 122°31'0 0.0
2019-Jul-19 21:39N 48°43' W 122°31'0 0.0
2019-Jul-19 18:09N 48°43' W 122°31'0 0.0
2019-Jul-19 17:57N 48°43' W 122°31'0 0.0
2019-Jul-19 17:27N 48°43' W 122°31'0 0.0
2019-Jul-19 16:57N 48°43' W 122°31'0 0.0
2019-Jul-19 16:27N 48°43' W 122°31'0 0.0
2019-Jul-19 14:57N 48°43' W 122°31'0 0.2
2019-Jul-19 14:30N 48°43' W 122°31'611.5
2019-Jul-19 14:00N 48°38' W 122°34'611.8
2019-Jul-19 13:31N 48°40' W 122°43'712.8
2019-Jul-19 13:00N 48°45' W 122°49'715.0
2019-Jul-19 12:30N 48°49' W 122°58'816.2
2019-Jul-19 12:00N 48°54' W 123°08'815.5
2019-Jul-19 11:30N 48°59' W 123°17'815.7
2019-Jul-19 11:00N 49°05' W 123°25'815.7
2019-Jul-19 10:30N 49°10' W 123°34'815.8
2019-Jul-19 10:00N 49°16' W 123°42'815.0
2019-Jul-19 09:30N 49°21' W 123°51'815.8
2019-Jul-19 09:00N 49°23' W 124°02'815.5
2019-Jul-19 08:30N 49°25' W 124°14'815.4
2019-Jul-19 07:59N 49°29' W 124°25'815.4
2019-Jul-19 07:29N 49°34' W 124°33'715.7
2019-Jul-19 07:00N 49°39' W 124°42'815.3
2019-Jul-19 06:30N 49°45' W 124°50'816.1
2019-Jul-19 06:00N 49°51' W 124°59'815.6
2019-Jul-19 05:30N 49°56' W 125°07'611.5
2019-Jul-19 05:00N 50°01' W 125°13'510.1
2019-Jul-19 04:30N 50°05' W 125°17'611.5
2019-Jul-19 04:00N 50°10' W 125°21'612.3
2019-Jul-19 03:30N 50°16' W 125°24'1310.9
2019-Jul-19 02:20N 50°22' W 125°41'3915.5
2019-Jul-18 23:48N 50°32' W 126°41'516.0
2019-Jul-18 23:31N 50°36' W 126°45'917.5
2019-Jul-18 23:00N 50°42' W 126°55'1016.9
2019-Jul-18 22:26N 50°48' W 127°07'716.6
2019-Jul-18 22:00N 50°52' W 127°17'1217.4
2019-Jul-18 21:19N 50°58' W 127°32'715.9
2019-Jul-18 20:51N 51°04' W 127°40'616.0
2019-Jul-18 20:30N 51°07' W 127°47'713.4
2019-Jul-18 19:59N 51°11' W 127°57'5 9.7
2019-Jul-18 19:30N 51°16' W 127°55'612.8
2019-Jul-18 19:01N 51°22' W 127°51'815.0
2019-Jul-18 18:30N 51°29' W 127°50'816.4
2019-Jul-18 18:01N 51°37' W 127°53'816.2
2019-Jul-18 17:30N 51°45' W 127°55'815.7
2019-Jul-18 17:00N 51°53' W 127°56'815.7
2019-Jul-18 16:30N 52°01' W 127°56'612.3
2019-Jul-18 16:00N 52°04' W 128°04'611.4
2019-Jul-18 15:30N 52°09' W 128°08'4 8.0
2019-Jul-18 15:00N 52°13' W 128°10'816.1
2019-Jul-18 14:30N 52°15' W 128°23'612.7
2019-Jul-18 14:00N 52°17' W 128°32'815.9
2019-Jul-18 13:30N 52°25' W 128°30'815.5
2019-Jul-18 13:00N 52°32' W 128°28'815.3
2019-Jul-18 12:30N 52°40' W 128°32'8514.3
2019-Jul-18 06:36N 53°47' W 129°57'216.2
2019-Jul-18 06:30N 53°48' W 129°59'816.3
2019-Jul-18 06:00N 53°54' W 130°08'815.3
2019-Jul-18 05:30N 54°01' W 130°14'815.5
2019-Jul-18 05:01N 54°07' W 130°22'816.0
2019-Jul-18 04:30N 54°14' W 130°30'816.3
2019-Jul-18 04:00N 54°21' W 130°36'816.3
2019-Jul-18 03:30N 54°29' W 130°38'816.4
2019-Jul-18 03:00N 54°37' W 130°42'1115.9
2019-Jul-18 02:20N 54°44' W 130°55'513.1
2019-Jul-18 01:57N 54°48' W 131°00'  
2019-Jul-14 12:12N 54°54' W 131°02'417.2
2019-Jul-14 11:58N 54°50' W 130°60'917.4
2019-Jul-14 11:28N 54°43' W 130°52'817.2
2019-Jul-14 11:00N 54°36' W 130°44'917.3
2019-Jul-14 10:30N 54°28' W 130°40'815.7
2019-Jul-14 10:00N 54°20' W 130°36'815.9
2019-Jul-14 09:30N 54°13' W 130°30'917.2
2019-Jul-14 09:01N 54°06' W 130°21'816.8
2019-Jul-14 08:30N 53°60' W 130°13'816.2
2019-Jul-14 08:00N 53°53' W 130°05'816.9
2019-Jul-14 07:31N 53°47' W 129°55'9413.7
2019-Jul-14 00:41N 52°35' W 128°15'316.5
2019-Jul-14 00:30N 52°32' W 128°16'713.5
2019-Jul-14 00:00N 52°28' W 128°24'816.1
2019-Jul-13 23:31N 52°21' W 128°32'815.7
2019-Jul-13 23:00N 52°15' W 128°23'816.8
2019-Jul-13 22:30N 52°13' W 128°10'4 8.4
2019-Jul-13 22:00N 52°09' W 128°08'611.1
2019-Jul-13 21:31N 52°05' W 128°04'510.9
2019-Jul-13 21:00N 52°02' W 127°56'713.4
2019-Jul-13 20:30N 51°55' W 127°56'816.7
2019-Jul-13 20:01N 51°47' W 127°55'816.3
2019-Jul-13 19:30N 51°39' W 127°54'816.4
2019-Jul-13 19:00N 51°31' W 127°52'816.4
2019-Jul-13 18:31N 51°22' W 127°51'816.7
2019-Jul-13 18:01N 51°14' W 127°52'816.0
2019-Jul-13 17:30N 51°07' W 127°46'1016.5
2019-Jul-13 16:54N 50°60' W 127°35'7816.4
2019-Jul-13 12:09N 50°23' W 125°47'1018.2
2019-Jul-13 11:37N 50°21' W 125°32'418.6
2019-Jul-13 11:25N 50°20' W 125°27'716.8
2019-Jul-13 10:58N 50°13' W 125°23'716.1
2019-Jul-13 10:30N 50°06' W 125°18'612.3
2019-Jul-13 10:01N 50°01' W 125°13'815.5
2019-Jul-13 09:30N 49°55' W 125°05'816.5
2019-Jul-13 09:00N 49°50' W 124°56'816.5
2019-Jul-13 08:30N 49°44' W 124°46'816.6
2019-Jul-13 08:00N 49°38' W 124°38'916.6
2019-Jul-13 07:26N 49°31' W 124°28'716.7
2019-Jul-13 07:00N 49°26' W 124°20'817.0
2019-Jul-13 06:31N 49°24' W 124°07'917.2
2019-Jul-13 06:00N 49°22' W 123°54'816.4
2019-Jul-13 05:30N 49°18' W 123°43'816.3
2019-Jul-13 05:00N 49°13' W 123°34'816.8
2019-Jul-13 04:30N 49°07' W 123°25'816.6
2019-Jul-13 04:01N 49°01' W 123°16'816.6
2019-Jul-13 03:30N 48°55' W 123°06'816.4
2019-Jul-13 03:01N 48°50' W 122°57'816.4
2019-Jul-13 02:30N 48°46' W 122°46'816.2
2019-Jul-13 02:00N 48°39' W 122°39'510.5
2019-Jul-13 01:29N 48°42' W 122°33'2 0.2
2019-Jul-12 17:57N 48°43' W 122°31'0 0.0
2019-Jul-12 15:51N 48°43' W 122°31'0 0.0
2019-Jul-12 15:30N 48°43' W 122°31'0 0.0
2019-Jul-12 14:56N 48°43' W 122°31'0 0.3
2019-Jul-12 14:30N 48°43' W 122°31'5 9.7
2019-Jul-12 14:00N 48°39' W 122°34'510.9
2019-Jul-12 13:30N 48°40' W 122°42'815.9
2019-Jul-12 13:01N 48°46' W 122°50'816.2
2019-Jul-12 12:30N 48°50' W 123°01'816.6
2019-Jul-12 12:01N 48°55' W 123°10'917.6
2019-Jul-12 11:31N 49°01' W 123°21'917.1
2019-Jul-12 11:00N 49°07' W 123°30'917.4
2019-Jul-12 10:31N 49°14' W 123°39'917.3
2019-Jul-12 10:01N 49°20' W 123°48'816.9
2019-Jul-12 09:30N 49°23' W 124°00'917.0
2019-Jul-12 09:00N 49°25' W 124°13'816.2
2019-Jul-12 08:30N 49°29' W 124°24'917.1
2019-Jul-12 07:59N 49°35' W 124°34'817.5
2019-Jul-12 07:30N 49°41' W 124°43'816.4
2019-Jul-12 07:00N 49°46' W 124°52'816.9
2019-Jul-12 06:30N 49°52' W 125°02'714.7
2019-Jul-12 06:00N 49°57' W 125°10'714.0
2019-Jul-12 05:30N 50°04' W 125°15'815.7
2019-Jul-12 05:00N 50°10' W 125°22'814.9
2019-Jul-12 04:30N 50°17' W 125°25'913.4
2019-Jul-12 03:51N 50°22' W 125°36'714.6
2019-Jul-12 03:24N 50°22' W 125°46'7614.4
2019-Jul-11 22:05N 50°59' W 127°32'216.1
2019-Jul-11 21:58N 50°59' W 127°35'715.5
2019-Jul-11 21:30N 51°05' W 127°42'815.7
2019-Jul-11 21:01N 51°11' W 127°50'816.3
2019-Jul-11 20:30N 51°19' W 127°52'816.9
2019-Jul-11 20:01N 51°27' W 127°50'816.7
2019-Jul-11 19:31N 51°36' W 127°53'816.9
2019-Jul-11 19:01N 51°44' W 127°56'816.9
2019-Jul-11 18:31N 51°52' W 127°57'917.3
2019-Jul-11 18:00N 52°01' W 127°56'612.3
2019-Jul-11 17:30N 52°05' W 128°04'611.1
2019-Jul-11 17:00N 52°09' W 128°08'4 8.2
2019-Jul-11 16:31N 52°13' W 128°10'816.6
2019-Jul-11 16:00N 52°15' W 128°23'613.0
2019-Jul-11 15:30N 52°18' W 128°32'815.9
2019-Jul-11 15:00N 52°26' W 128°29'815.6
2019-Jul-11 14:31N 52°34' W 128°28'814.9
2019-Jul-11 14:00N 52°41' W 128°33'  
Track history (hours):
 
Tides and Currents Weather Stations Pressure Air Temp Water Temp Dewpoint Dewpoint Depression Visibility Wind Speed Wind Dir Waves Ship Positions

Columbia

Owner: ALASKA, STATE OF, ANCHORAGE, AK. More information available from US FCC via Universal Licensing System and Coast Guard Vessel Documentation Center.

Last reported at 2019-Jul-21 11:52 UTC. Time now 2019-Jul-22 14:21 UTC.
Position N 54°54' W 131°02'.

Type: Passenger vessel. MMSI: 367144000.

Date/timePositionNaut miles runAvg speedWind from/ knotsBaromVisibWave heightAir tempDewpointWater temp
2019-Jul-21 11:52N 54°54' W 131°02'616.4
2019-Jul-21 11:30N 54°48' W 130°59'817.0
2019-Jul-21 11:00N 54°42' W 130°50'817.0
2019-Jul-21 10:30N 54°35' W 130°40'816.5
2019-Jul-21 10:01N 54°27' W 130°38'816.5
2019-Jul-21 09:30N 54°19' W 130°35'816.1
2019-Jul-21 09:01N 54°12' W 130°28'815.2
2019-Jul-21 08:30N 54°06' W 130°21'816.7
2019-Jul-21 08:00N 53°59' W 130°13'815.8
2019-Jul-21 07:30N 53°53' W 130°05'816.4
2019-Jul-21 07:00N 53°47' W 129°55'9313.2
2019-Jul-20 23:56N 52°35' W 128°15'914.1
2019-Jul-20 23:16N 52°28' W 128°24'417.5
2019-Jul-20 23:01N 52°25' W 128°29'714.4
2019-Jul-20 22:30N 52°17' W 128°28'816.0
2019-Jul-20 22:00N 52°14' W 128°16'612.8
2019-Jul-20 21:30N 52°11' W 128°07'4 7.7
2019-Jul-20 21:00N 52°07' W 128°08'714.7
2019-Jul-20 20:31N 52°04' W 127°57'816.0
2019-Jul-20 20:00N 51°56' W 127°56'917.2
2019-Jul-20 19:30N 51°47' W 127°55'917.1
2019-Jul-20 19:00N 51°39' W 127°54'917.2
2019-Jul-20 18:30N 51°30' W 127°52'917.2
2019-Jul-20 18:00N 51°22' W 127°51'816.3
2019-Jul-20 17:30N 51°14' W 127°52'917.3
2019-Jul-20 17:01N 51°06' W 127°45'917.7
2019-Jul-20 16:30N 50°60' W 127°35'7816.5
2019-Jul-20 11:46N 50°23' W 125°47'1316.1
2019-Jul-20 10:58N 50°20' W 125°27'715.9
2019-Jul-20 10:30N 50°14' W 125°23'715.2
2019-Jul-20 10:00N 50°07' W 125°18'612.0
2019-Jul-20 09:30N 50°02' W 125°13'815.4
2019-Jul-20 09:00N 49°56' W 125°06'917.3
2019-Jul-20 08:30N 49°49' W 124°56'816.7
2019-Jul-20 08:00N 49°44' W 124°47'917.1
2019-Jul-20 07:30N 49°37' W 124°38'917.4
2019-Jul-20 07:01N 49°31' W 124°28'816.9
2019-Jul-20 06:31N 49°26' W 124°18'816.9
2019-Jul-20 06:00N 49°24' W 124°06'816.9
2019-Jul-20 05:30N 49°22' W 123°53'816.5
2019-Jul-20 05:01N 49°18' W 123°42'917.0
2019-Jul-20 04:30N 49°12' W 123°33'816.9
2019-Jul-20 04:00N 49°06' W 123°24'917.1
2019-Jul-20 03:31N 48°60' W 123°14'816.9
2019-Jul-20 03:01N 48°54' W 123°05'1118.0
2019-Jul-20 02:26N 48°48' W 122°52'716.8
2019-Jul-20 02:00N 48°43' W 122°44'816.0
2019-Jul-20 01:31N 48°39' W 122°34'5 4.2
2019-Jul-20 00:15N 48°43' W 122°31'0 0.0
2019-Jul-19 22:09N 48°43' W 122°31'0 0.0
2019-Jul-19 21:39N 48°43' W 122°31'0 0.0
2019-Jul-19 18:09N 48°43' W 122°31'0 0.0
2019-Jul-19 17:57N 48°43' W 122°31'0 0.0
2019-Jul-19 17:27N 48°43' W 122°31'0 0.0
2019-Jul-19 16:57N 48°43' W 122°31'0 0.0
2019-Jul-19 16:27N 48°43' W 122°31'0 0.0
2019-Jul-19 14:57N 48°43' W 122°31'0 0.2
2019-Jul-19 14:30N 48°43' W 122°31'611.5
2019-Jul-19 14:00N 48°38' W 122°34'611.8
2019-Jul-19 13:31N 48°40' W 122°43'712.8
2019-Jul-19 13:00N 48°45' W 122°49'715.0
2019-Jul-19 12:30N 48°49' W 122°58'816.2
2019-Jul-19 12:00N 48°54' W 123°08'815.5
2019-Jul-19 11:30N 48°59' W 123°17'815.7
2019-Jul-19 11:00N 49°05' W 123°25'815.7
2019-Jul-19 10:30N 49°10' W 123°34'815.8
2019-Jul-19 10:00N 49°16' W 123°42'815.0
2019-Jul-19 09:30N 49°21' W 123°51'815.8
2019-Jul-19 09:00N 49°23' W 124°02'815.5
2019-Jul-19 08:30N 49°25' W 124°14'815.4
2019-Jul-19 07:59N 49°29' W 124°25'815.4
2019-Jul-19 07:29N 49°34' W 124°33'715.7
2019-Jul-19 07:00N 49°39' W 124°42'815.3
2019-Jul-19 06:30N 49°45' W 124°50'816.1
2019-Jul-19 06:00N 49°51' W 124°59'815.6
2019-Jul-19 05:30N 49°56' W 125°07'611.5
2019-Jul-19 05:00N 50°01' W 125°13'510.1
2019-Jul-19 04:30N 50°05' W 125°17'611.5
2019-Jul-19 04:00N 50°10' W 125°21'612.3
2019-Jul-19 03:30N 50°16' W 125°24'1310.9
2019-Jul-19 02:20N 50°22' W 125°41'3915.5
2019-Jul-18 23:48N 50°32' W 126°41'516.0
2019-Jul-18 23:31N 50°36' W 126°45'917.5
2019-Jul-18 23:00N 50°42' W 126°55'1016.9
2019-Jul-18 22:26N 50°48' W 127°07'716.6
2019-Jul-18 22:00N 50°52' W 127°17'1217.4
2019-Jul-18 21:19N 50°58' W 127°32'715.9
2019-Jul-18 20:51N 51°04' W 127°40'616.0
2019-Jul-18 20:30N 51°07' W 127°47'713.4
2019-Jul-18 19:59N 51°11' W 127°57'5 9.7
2019-Jul-18 19:30N 51°16' W 127°55'612.8
2019-Jul-18 19:01N 51°22' W 127°51'815.0
2019-Jul-18 18:30N 51°29' W 127°50'816.4
2019-Jul-18 18:01N 51°37' W 127°53'816.2
2019-Jul-18 17:30N 51°45' W 127°55'815.7
2019-Jul-18 17:00N 51°53' W 127°56'815.7
2019-Jul-18 16:30N 52°01' W 127°56'612.3
2019-Jul-18 16:00N 52°04' W 128°04'611.4
2019-Jul-18 15:30N 52°09' W 128°08'4 8.0
2019-Jul-18 15:00N 52°13' W 128°10'816.1
2019-Jul-18 14:30N 52°15' W 128°23'612.7
2019-Jul-18 14:00N 52°17' W 128°32'815.9
2019-Jul-18 13:30N 52°25' W 128°30'815.5
2019-Jul-18 13:00N 52°32' W 128°28'815.3
2019-Jul-18 12:30N 52°40' W 128°32'8514.3
2019-Jul-18 06:36N 53°47' W 129°57'216.2
2019-Jul-18 06:30N 53°48' W 129°59'816.3
2019-Jul-18 06:00N 53°54' W 130°08'815.3
2019-Jul-18 05:30N 54°01' W 130°14'815.5
2019-Jul-18 05:01N 54°07' W 130°22'816.0
2019-Jul-18 04:30N 54°14' W 130°30'816.3
2019-Jul-18 04:00N 54°21' W 130°36'816.3
2019-Jul-18 03:30N 54°29' W 130°38'816.4
2019-Jul-18 03:00N 54°37' W 130°42'1115.9
2019-Jul-18 02:20N 54°44' W 130°55'513.1
2019-Jul-18 01:57N 54°48' W 131°00'  
2019-Jul-14 12:12N 54°54' W 131°02'417.2
2019-Jul-14 11:58N 54°50' W 130°60'917.4
2019-Jul-14 11:28N 54°43' W 130°52'817.2
2019-Jul-14 11:00N 54°36' W 130°44'917.3
2019-Jul-14 10:30N 54°28' W 130°40'815.7
2019-Jul-14 10:00N 54°20' W 130°36'815.9
2019-Jul-14 09:30N 54°13' W 130°30'917.2
2019-Jul-14 09:01N 54°06' W 130°21'816.8
2019-Jul-14 08:30N 53°60' W 130°13'816.2
2019-Jul-14 08:00N 53°53' W 130°05'816.9
2019-Jul-14 07:31N 53°47' W 129°55'9413.7
2019-Jul-14 00:41N 52°35' W 128°15'316.5
2019-Jul-14 00:30N 52°32' W 128°16'713.5
2019-Jul-14 00:00N 52°28' W 128°24'816.1
2019-Jul-13 23:31N 52°21' W 128°32'815.7
2019-Jul-13 23:00N 52°15' W 128°23'816.8
2019-Jul-13 22:30N 52°13' W 128°10'4 8.4
2019-Jul-13 22:00N 52°09' W 128°08'611.1
2019-Jul-13 21:31N 52°05' W 128°04'510.9
2019-Jul-13 21:00N 52°02' W 127°56'713.4
2019-Jul-13 20:30N 51°55' W 127°56'816.7
2019-Jul-13 20:01N 51°47' W 127°55'816.3
2019-Jul-13 19:30N 51°39' W 127°54'816.4
2019-Jul-13 19:00N 51°31' W 127°52'816.4
2019-Jul-13 18:31N 51°22' W 127°51'816.7
2019-Jul-13 18:01N 51°14' W 127°52'816.0
2019-Jul-13 17:30N 51°07' W 127°46'1016.5
2019-Jul-13 16:54N 50°60' W 127°35'7816.4
2019-Jul-13 12:09N 50°23' W 125°47'1018.2
2019-Jul-13 11:37N 50°21' W 125°32'418.6
2019-Jul-13 11:25N 50°20' W 125°27'716.8
2019-Jul-13 10:58N 50°13' W 125°23'716.1
2019-Jul-13 10:30N 50°06' W 125°18'612.3
2019-Jul-13 10:01N 50°01' W 125°13'815.5
2019-Jul-13 09:30N 49°55' W 125°05'816.5
2019-Jul-13 09:00N 49°50' W 124°56'816.5
2019-Jul-13 08:30N 49°44' W 124°46'816.6
2019-Jul-13 08:00N 49°38' W 124°38'916.6
2019-Jul-13 07:26N 49°31' W 124°28'716.7
2019-Jul-13 07:00N 49°26' W 124°20'817.0
2019-Jul-13 06:31N 49°24' W 124°07'917.2
2019-Jul-13 06:00N 49°22' W 123°54'816.4
2019-Jul-13 05:30N 49°18' W 123°43'816.3
2019-Jul-13 05:00N 49°13' W 123°34'816.8
2019-Jul-13 04:30N 49°07' W 123°25'816.6
2019-Jul-13 04:01N 49°01' W 123°16'816.6
2019-Jul-13 03:30N 48°55' W 123°06'816.4
2019-Jul-13 03:01N 48°50' W 122°57'816.4
2019-Jul-13 02:30N 48°46' W 122°46'816.2
2019-Jul-13 02:00N 48°39' W 122°39'510.5
2019-Jul-13 01:29N 48°42' W 122°33'2 0.2
2019-Jul-12 17:57N 48°43' W 122°31'0 0.0
2019-Jul-12 15:51N 48°43' W 122°31'0 0.0
2019-Jul-12 15:30N 48°43' W 122°31'0 0.0
2019-Jul-12 14:56N 48°43' W 122°31'0 0.3
2019-Jul-12 14:30N 48°43' W 122°31'5 9.7
2019-Jul-12 14:00N 48°39' W 122°34'510.9
2019-Jul-12 13:30N 48°40' W 122°42'815.9
2019-Jul-12 13:01N 48°46' W 122°50'816.2
2019-Jul-12 12:30N 48°50' W 123°01'816.6
2019-Jul-12 12:01N 48°55' W 123°10'917.6
2019-Jul-12 11:31N 49°01' W 123°21'917.1
2019-Jul-12 11:00N 49°07' W 123°30'917.4
2019-Jul-12 10:31N 49°14' W 123°39'917.3
2019-Jul-12 10:01N 49°20' W 123°48'816.9
2019-Jul-12 09:30N 49°23' W 124°00'917.0
2019-Jul-12 09:00N 49°25' W 124°13'816.2
2019-Jul-12 08:30N 49°29' W 124°24'917.1
2019-Jul-12 07:59N 49°35' W 124°34'817.5
2019-Jul-12 07:30N 49°41' W 124°43'816.4
2019-Jul-12 07:00N 49°46' W 124°52'816.9
2019-Jul-12 06:30N 49°52' W 125°02'714.7
2019-Jul-12 06:00N 49°57' W 125°10'714.0
2019-Jul-12 05:30N 50°04' W 125°15'815.7
2019-Jul-12 05:00N 50°10' W 125°22'814.9
2019-Jul-12 04:30N 50°17' W 125°25'913.4
2019-Jul-12 03:51N 50°22' W 125°36'714.6
2019-Jul-12 03:24N 50°22' W 125°46'7614.4
2019-Jul-11 22:05N 50°59' W 127°32'216.1
2019-Jul-11 21:58N 50°59' W 127°35'715.5
2019-Jul-11 21:30N 51°05' W 127°42'815.7
2019-Jul-11 21:01N 51°11' W 127°50'816.3
2019-Jul-11 20:30N 51°19' W 127°52'816.9
2019-Jul-11 20:01N 51°27' W 127°50'816.7
2019-Jul-11 19:31N 51°36' W 127°53'816.9
2019-Jul-11 19:01N 51°44' W 127°56'816.9
2019-Jul-11 18:31N 51°52' W 127°57'917.3
2019-Jul-11 18:00N 52°01' W 127°56'612.3
2019-Jul-11 17:30N 52°05' W 128°04'611.1
2019-Jul-11 17:00N 52°09' W 128°08'4 8.2
2019-Jul-11 16:31N 52°13' W 128°10'816.6
2019-Jul-11 16:00N 52°15' W 128°23'613.0
2019-Jul-11 15:30N 52°18' W 128°32'815.9
2019-Jul-11 15:00N 52°26' W 128°29'815.6
2019-Jul-11 14:31N 52°34' W 128°28'814.9
2019-Jul-11 14:00N 52°41' W 128°33'  

Dump ship's entire track history